createdAt,value
2018-12-11T00:02:16.801Z,94371.05
2018-12-11T00:04:45.498Z,94371.70
2018-12-11T00:07:14.667Z,94374.76
2018-12-11T00:09:43.373Z,94377.19
2018-12-11T00:12:12.082Z,94382.02
2018-12-11T00:14:40.801Z,94387.87
2018-12-11T00:17:09.508Z,94386.73
2018-12-11T00:19:38.214Z,94386.90
2018-12-11T00:22:06.918Z,94388.20
2018-12-11T00:24:35.659Z,94396.91
2018-12-11T00:27:04.357Z,94399.48
2018-12-11T00:29:33.066Z,94397.39
2018-12-11T00:32:01.764Z,94404.21
2018-12-11T00:34:30.444Z,94402.75
2018-12-11T00:36:59.197Z,94401.94
2018-12-11T00:39:27.869Z,94415.06
2018-12-11T00:41:56.670Z,94404.70
2018-12-11T00:44:25.535Z,94405.34
2018-12-11T00:46:54.270Z,94408.27
2018-12-11T00:49:23.036Z,94399.20
2018-12-11T00:51:51.758Z,94401.13
2018-12-11T00:54:20.468Z,94395.48
2018-12-11T00:56:49.138Z,94394.52
2018-12-11T00:59:18.293Z,94398.56
2018-12-11T01:01:46.982Z,94386.92
2018-12-11T01:04:15.710Z,94385.94
2018-12-11T01:06:44.549Z,94386.27
2018-12-11T01:09:13.347Z,94377.85
2018-12-11T01:11:42.290Z,94379.94
2018-12-11T01:14:11.035Z,94394.98
2018-12-11T01:16:39.762Z,94389.01
2018-12-11T01:19:08.722Z,94393.66
2018-12-11T01:21:37.478Z,94390.44
2018-12-11T01:24:06.127Z,94391.08
2018-12-11T01:26:34.944Z,94396.91
2018-12-11T01:29:03.694Z,94388.18
2018-12-11T01:31:32.349Z,94394.49
2018-12-11T01:34:01.134Z,94383.66
2018-12-11T01:36:29.854Z,94384.64
2018-12-11T01:38:58.500Z,94381.89
2018-12-11T01:41:27.153Z,94371.21
2018-12-11T01:43:55.872Z,94391.27
2018-12-11T01:46:24.571Z,94384.95
2018-12-11T01:48:53.398Z,94377.35
2018-12-11T01:51:22.235Z,94387.88
2018-12-11T01:53:50.911Z,94381.72
2018-12-11T01:56:20.097Z,94381.25
2018-12-11T01:58:48.865Z,94377.35
2018-12-11T02:01:17.661Z,94375.42
2018-12-11T02:03:46.476Z,94377.20
2018-12-11T02:06:15.208Z,94376.08
2018-12-11T02:08:43.971Z,94365.23
2018-12-11T02:11:12.689Z,94375.09
2018-12-11T02:13:41.613Z,94376.38
2018-12-11T02:16:10.305Z,94377.18
2018-12-11T02:18:39.034Z,94373.95
2018-12-11T02:21:07.748Z,94378.31
2018-12-11T02:23:36.416Z,94394.97
2018-12-11T02:26:11.742Z,94383.97
2018-12-11T02:28:41.010Z,94375.89
2018-12-11T02:31:09.846Z,94387.20
2018-12-11T02:33:38.578Z,94382.03
2018-12-11T02:36:07.390Z,94380.58
2018-12-11T02:38:36.229Z,94368.61
2018-12-11T02:41:04.930Z,94385.28
2018-12-11T02:43:33.778Z,94388.17
2018-12-11T02:46:02.429Z,94367.17
2018-12-11T02:48:31.135Z,94372.62
2018-12-11T02:51:00.183Z,94375.37
2018-12-11T02:53:28.903Z,94365.84
2018-12-11T02:55:57.605Z,94359.87
2018-12-11T02:58:26.282Z,94362.95
2018-12-11T03:00:54.961Z,94369.88
2018-12-11T03:03:23.670Z,94364.05
2018-12-11T03:05:52.645Z,94366.80
2018-12-11T03:08:21.315Z,94362.44
2018-12-11T03:10:50.587Z,94368.56
2018-12-11T03:13:19.350Z,94357.42
2018-12-11T03:15:48.029Z,94366.63
2018-12-11T03:18:16.669Z,94360.80
2018-12-11T03:20:45.428Z,94359.67
2018-12-11T03:23:14.167Z,94371.30
2018-12-11T03:25:42.850Z,94371.62
2018-12-11T03:28:11.556Z,94370.66
2018-12-11T03:30:40.498Z,94368.08
2018-12-11T03:33:09.519Z,94373.91
2018-12-11T03:35:38.253Z,94378.42
2018-12-11T03:38:06.976Z,94375.00
2018-12-11T03:40:36.260Z,94385.02
2018-12-11T03:43:04.931Z,94390.66
2018-12-11T03:45:33.676Z,94395.14
2018-12-11T03:48:02.523Z,94393.53
2018-12-11T03:50:31.186Z,94392.87
2018-12-11T03:52:59.904Z,94400.80
2018-12-11T03:55:28.673Z,94404.97
2018-12-11T03:57:57.413Z,94397.05
2018-12-11T04:00:26.125Z,94409.30
2018-12-11T04:02:54.865Z,94401.88
2018-12-11T04:05:23.641Z,94401.67
2018-12-11T04:07:53.095Z,94401.34
2018-12-11T04:10:21.788Z,94390.38
2018-12-11T04:12:50.558Z,94418.31
2018-12-11T04:15:19.585Z,94401.81
2018-12-11T04:17:48.333Z,94407.47
2018-12-11T04:20:17.160Z,94417.64
2018-12-11T04:22:45.868Z,94408.28
2018-12-11T04:25:14.664Z,94414.25
2018-12-11T04:27:43.367Z,94418.94
2018-12-11T04:30:12.746Z,94422.81
2018-12-11T04:32:41.459Z,94424.10
2018-12-11T04:35:10.111Z,94427.64
2018-12-11T04:37:38.788Z,94432.81
2018-12-11T04:40:08.515Z,94436.17
2018-12-11T04:42:37.210Z,94442.95
2018-12-11T04:45:07.226Z,94451.19
2018-12-11T04:47:36.024Z,94445.69
2018-12-11T04:50:06.085Z,94451.18
2018-12-11T04:52:34.755Z,94453.43
2018-12-11T04:55:03.999Z,94462.14
2018-12-11T04:57:32.713Z,94467.16
2018-12-11T05:00:01.437Z,94462.47
2018-12-11T05:02:30.201Z,94466.16
2018-12-11T05:04:58.924Z,94451.91
2018-12-11T05:07:27.701Z,94452.58
2018-12-11T05:09:56.473Z,94449.66
2018-12-11T05:12:25.149Z,94453.06
2018-12-11T05:14:53.915Z,94469.03
2018-12-11T05:17:22.642Z,94456.78
2018-12-11T05:19:51.354Z,94470.17
2018-12-11T05:22:20.086Z,94469.65
2018-12-11T05:24:48.816Z,94463.38
2018-12-11T05:27:17.553Z,94474.14
2018-12-11T05:29:46.334Z,94474.77
2018-12-11T05:32:15.012Z,94471.70
2018-12-11T05:34:43.735Z,94478.82
2018-12-11T05:37:12.776Z,94479.79
2018-12-11T05:39:41.464Z,94482.69
2018-12-11T05:42:10.149Z,94490.91
2018-12-11T05:44:38.900Z,94488.91
2018-12-11T05:47:07.699Z,94500.69
2018-12-11T05:49:36.480Z,94506.52
2018-12-11T05:52:05.199Z,94505.80
2018-12-11T05:54:34.039Z,94506.55
2018-12-11T05:57:02.759Z,94509.34
2018-12-11T05:59:37.910Z,94512.87
2018-12-11T06:02:07.784Z,94517.32
2018-12-11T06:04:36.470Z,94519.50
2018-12-11T06:07:05.293Z,94521.17
2018-12-11T06:09:34.004Z,94524.23
2018-12-11T06:12:04.175Z,94507.88
2018-12-11T06:14:32.991Z,94524.38
2018-12-11T06:17:02.728Z,94540.25
2018-12-11T06:19:31.855Z,94527.63
2018-12-11T06:22:00.636Z,94527.59
2018-12-11T06:24:29.349Z,94531.77
2018-12-11T06:26:58.081Z,94535.78
2018-12-11T06:29:26.809Z,94531.24
2018-12-11T06:31:55.717Z,94536.59
2018-12-11T06:34:24.449Z,94532.76
2018-12-11T06:36:53.102Z,94537.41
2018-12-11T06:39:21.885Z,94544.00
2018-12-11T06:41:50.619Z,94541.05
2018-12-11T06:44:19.336Z,94549.13
2018-12-11T06:46:48.105Z,94560.38
2018-12-11T06:49:16.788Z,94566.39
2018-12-11T06:51:45.510Z,94569.17
2018-12-11T06:54:14.166Z,94575.63
2018-12-11T06:56:42.944Z,94563.97
2018-12-11T06:59:11.681Z,94576.55
2018-12-11T07:01:40.384Z,94576.02
2018-12-11T07:04:09.123Z,94566.27
2018-12-11T07:06:37.807Z,94564.25
2018-12-11T07:09:07.528Z,94572.52
2018-12-11T07:11:36.190Z,94569.13
2018-12-11T07:14:04.849Z,94573.29
2018-12-11T07:16:33.696Z,94572.52
2018-12-11T07:19:02.416Z,94589.59
2018-12-11T07:21:31.558Z,94596.58
2018-12-11T07:24:00.267Z,94591.84
2018-12-11T07:26:28.965Z,94606.58
2018-12-11T07:28:57.637Z,94604.19
2018-12-11T07:31:26.394Z,94604.44
2018-12-11T07:33:55.085Z,94614.77
2018-12-11T07:36:23.789Z,94619.78
2018-12-11T07:38:52.556Z,94610.31
2018-12-11T07:41:21.250Z,94610.66
2018-12-11T07:43:50.076Z,94605.55
2018-12-11T07:46:18.750Z,94605.75
2018-12-11T07:48:47.475Z,94610.82
2018-12-11T07:51:16.140Z,94609.80
2018-12-11T07:53:44.798Z,94620.57
2018-12-11T07:56:13.491Z,94611.42
2018-12-11T07:58:42.173Z,94623.30
2018-12-11T08:01:10.919Z,94611.42
2018-12-11T08:03:39.602Z,94622.30
2018-12-11T08:06:08.333Z,94630.67
2018-12-11T08:08:37.022Z,94628.94
2018-12-11T08:11:05.786Z,94625.21
2018-12-11T08:13:34.519Z,94627.36
2018-12-11T08:16:03.339Z,94629.32
2018-12-11T08:18:32.257Z,94639.66
2018-12-11T08:21:01.296Z,94630.95
2018-12-11T08:23:30.021Z,94620.59
2018-12-11T08:25:58.727Z,94625.63
2018-12-11T08:28:27.410Z,94620.93
2018-12-11T08:30:56.125Z,94625.52
2018-12-11T08:33:24.898Z,94640.33
2018-12-11T08:35:53.595Z,94625.30
2018-12-11T08:38:22.321Z,94623.55
2018-12-11T08:40:50.999Z,94650.90
2018-12-11T08:43:19.769Z,94638.89
2018-12-11T08:45:48.453Z,94633.68
2018-12-11T08:48:17.127Z,94624.84
2018-12-11T08:50:45.849Z,94627.43
2018-12-11T08:53:14.597Z,94612.03
2018-12-11T08:55:43.255Z,94635.74
2018-12-11T08:58:11.928Z,94638.95
2018-12-11T09:00:40.657Z,94635.74
2018-12-11T09:03:09.409Z,94635.30
2018-12-11T09:05:38.106Z,94626.44
2018-12-11T09:08:06.889Z,94625.44
2018-12-11T09:10:35.631Z,94616.09
2018-12-11T09:13:04.329Z,94615.31
2018-12-11T09:15:33.044Z,94617.75
2018-12-11T09:18:01.803Z,94617.27
2018-12-11T09:20:30.584Z,94605.15
2018-12-11T09:22:59.283Z,94605.33
2018-12-11T09:25:27.972Z,94603.59
2018-12-11T09:27:56.717Z,94601.15
2018-12-11T09:30:25.529Z,94599.05
2018-12-11T09:32:54.568Z,94605.39
2018-12-11T09:35:23.294Z,94614.53
2018-12-11T09:37:52.026Z,94592.19
2018-12-11T09:40:24.482Z,94589.86
2018-12-11T09:42:51.637Z,94597.98
2018-12-11T09:45:20.356Z,94588.64
2018-12-11T09:47:49.132Z,94590.98
2018-12-11T09:50:17.798Z,94587.80
2018-12-11T09:52:46.581Z,94581.89
2018-12-11T09:55:15.562Z,94577.07
2018-12-11T09:57:44.270Z,94586.64
2018-12-11T10:00:13.693Z,94582.91
2018-12-11T10:02:42.421Z,94573.67
2018-12-11T10:05:11.143Z,94579.67
2018-12-11T10:07:39.846Z,94575.62
2018-12-11T10:10:09.537Z,94561.83
2018-12-11T10:12:38.290Z,94559.09
2018-12-11T10:15:08.081Z,94571.08
2018-12-11T10:17:36.810Z,94558.78
2018-12-11T10:20:06.521Z,94566.85
2018-12-11T10:22:35.620Z,94562.80
2018-12-11T10:25:05.650Z,94572.19
2018-12-11T10:27:34.422Z,94555.20
2018-12-11T10:30:12.017Z,94549.34
2018-12-11T10:32:40.733Z,94561.33
2018-12-11T10:35:10.309Z,94577.80
2018-12-11T10:37:39.026Z,94568.55
2018-12-11T10:40:08.266Z,94562.71
2018-12-11T10:42:37.132Z,94571.80
2018-12-11T10:45:06.980Z,94573.25
2018-12-11T10:47:35.766Z,94556.75
2018-12-11T10:50:05.454Z,94566.92
2018-12-11T10:52:34.199Z,94553.98
2018-12-11T10:55:03.006Z,94548.33
2018-12-11T10:57:31.767Z,94539.62
2018-12-11T11:00:00.487Z,94553.50
2018-12-11T11:02:29.288Z,94546.06
2018-12-11T11:04:58.014Z,94558.39
2018-12-11T11:07:26.707Z,94565.28
2018-12-11T11:09:55.456Z,94554.77
2018-12-11T11:12:24.180Z,94553.28
2018-12-11T11:14:52.997Z,94555.72
2018-12-11T11:17:21.993Z,94555.39
2018-12-11T11:19:50.853Z,94552.98
2018-12-11T11:22:19.633Z,94554.91
2018-12-11T11:24:48.488Z,94546.84
2018-12-11T11:27:17.292Z,94549.30
2018-12-11T11:29:46.007Z,94560.98
2018-12-11T11:32:14.773Z,94555.31
2018-12-11T11:34:43.446Z,94569.53
2018-12-11T11:37:12.121Z,94568.41
2018-12-11T11:39:40.826Z,94573.27
2018-12-11T11:42:09.501Z,94569.84
2018-12-11T11:44:39.848Z,94561.27
2018-12-11T11:47:09.720Z,94567.06
2018-12-11T11:49:38.428Z,94570.28
2018-12-11T11:52:07.156Z,94570.12
2018-12-11T11:54:35.804Z,94575.76
2018-12-11T11:57:04.492Z,94581.59
2018-12-11T11:59:33.191Z,94574.64
2018-12-11T12:02:01.962Z,94584.36
2018-12-11T12:04:30.680Z,94577.73
2018-12-11T12:06:59.414Z,94575.81
2018-12-11T12:09:28.131Z,94588.11
2018-12-11T12:11:56.903Z,94584.78
2018-12-11T12:14:25.605Z,94586.55
2018-12-11T12:16:54.454Z,94582.67
2018-12-11T12:19:23.184Z,94591.88
2018-12-11T12:21:52.450Z,94593.01
2018-12-11T12:24:21.162Z,94599.43
2018-12-11T12:26:49.897Z,94611.65
2018-12-11T12:29:18.609Z,94597.36
2018-12-11T12:31:47.279Z,94604.27
2018-12-11T12:34:16.025Z,94611.59
2018-12-11T12:36:44.833Z,94608.81
2018-12-11T12:39:13.515Z,94609.92
2018-12-11T12:41:42.268Z,94606.41
2018-12-11T12:44:10.930Z,94609.63
2018-12-11T12:46:39.694Z,94609.92
2018-12-11T12:49:08.421Z,94614.76
2018-12-11T12:51:37.072Z,94616.30
2018-12-11T12:54:05.799Z,94624.69
2018-12-11T12:56:34.703Z,94619.22
2018-12-11T12:59:04.383Z,94614.98
2018-12-11T13:01:33.118Z,94618.23
2018-12-11T13:04:01.822Z,94619.85
2018-12-11T13:06:31.130Z,94623.25
2018-12-11T13:09:00.428Z,94625.80
2018-12-11T13:11:29.078Z,94620.58
2018-12-11T13:13:58.439Z,94628.52
2018-12-11T13:16:27.218Z,94622.83
2018-12-11T13:18:55.889Z,94625.27
2018-12-11T13:21:24.666Z,94624.31
2018-12-11T13:23:53.320Z,94632.45
2018-12-11T13:26:21.987Z,94624.25
2018-12-11T13:28:50.653Z,94635.22
2018-12-11T13:31:19.335Z,94647.66
2018-12-11T13:33:48.043Z,94641.82
2018-12-11T13:36:17.102Z,94639.38
2018-12-11T13:38:46.469Z,94649.02
2018-12-11T13:41:15.448Z,94643.70
2018-12-11T13:43:44.517Z,94640.45
2018-12-11T13:46:13.298Z,94637.72
2018-12-11T13:48:42.828Z,94637.61
2018-12-11T13:51:11.914Z,94638.28
2018-12-11T13:53:40.574Z,94638.48
2018-12-11T13:56:09.433Z,94638.14
2018-12-11T13:58:38.155Z,94648.34
2018-12-11T14:01:06.905Z,94635.92
2018-12-11T14:03:35.744Z,94631.72
2018-12-11T14:06:04.411Z,94628.65
2018-12-11T14:08:33.084Z,94629.66
2018-12-11T14:11:01.842Z,94633.34
2018-12-11T14:13:30.492Z,94631.75
2018-12-11T14:15:59.262Z,94632.72
2018-12-11T14:18:27.964Z,94638.70
2018-12-11T14:20:56.662Z,94643.20
2018-12-11T14:23:25.356Z,94641.63
2018-12-11T14:25:54.042Z,94638.20
2018-12-11T14:28:22.734Z,94645.95
2018-12-11T14:30:51.987Z,94645.32
2018-12-11T14:33:20.685Z,94658.38
2018-12-11T14:35:50.149Z,94656.91
2018-12-11T14:38:18.827Z,94659.14
2018-12-11T14:40:47.498Z,94659.45
2018-12-11T14:43:16.202Z,94665.28
2018-12-11T14:45:45.000Z,94661.41
2018-12-11T14:48:13.694Z,94654.66
2018-12-11T14:50:42.397Z,94657.72
2018-12-11T14:53:11.188Z,94670.11
2018-12-11T14:55:39.865Z,94666.85
2018-12-11T14:58:09.508Z,94668.91
2018-12-11T15:00:38.261Z,94663.20
2018-12-11T15:03:06.954Z,94655.12
2018-12-11T15:05:35.668Z,94658.24
2018-12-11T15:08:04.759Z,94658.87
2018-12-11T15:10:33.867Z,94663.70
2018-12-11T15:13:02.998Z,94663.55
2018-12-11T15:15:31.733Z,94666.41
2018-12-11T15:18:00.456Z,94666.74
2018-12-11T15:20:29.138Z,94669.47
2018-12-11T15:22:57.795Z,94663.63
2018-12-11T15:25:26.489Z,94664.85
2018-12-11T15:27:55.268Z,94663.98
2018-12-11T15:30:23.965Z,94662.22
2018-12-11T15:32:53.063Z,94663.56
2018-12-11T15:35:21.787Z,94663.51
2018-12-11T15:37:50.536Z,94668.98
2018-12-11T15:40:19.249Z,94670.61
2018-12-11T15:42:48.013Z,94679.00
2018-12-11T15:45:16.798Z,94682.06
2018-12-11T15:47:45.458Z,94678.19
2018-12-11T15:50:14.152Z,94687.06
2018-12-11T15:52:42.858Z,94687.77
2018-12-11T15:55:11.591Z,94686.59
2018-12-11T15:57:40.512Z,94684.42
2018-12-11T16:00:12.874Z,94688.89
2018-12-11T16:02:41.618Z,94685.50
2018-12-11T16:05:10.905Z,94686.31
2018-12-11T16:07:39.580Z,94689.45
2018-12-11T16:10:09.131Z,94685.89
2018-12-11T16:12:37.886Z,94694.61
2018-12-11T16:15:07.684Z,94699.50
2018-12-11T16:17:36.454Z,94699.98
2018-12-11T16:20:06.811Z,94701.38
2018-12-11T16:22:35.755Z,94705.89
2018-12-11T16:25:05.983Z,94697.84
2018-12-11T16:27:35.244Z,94710.97
2018-12-11T16:30:11.532Z,94711.42
2018-12-11T16:32:40.595Z,94708.78
2018-12-11T16:35:09.740Z,94708.78
2018-12-11T16:37:38.640Z,94716.66
2018-12-11T16:40:08.485Z,94715.06
2018-12-11T16:42:37.179Z,94706.06
2018-12-11T16:45:07.302Z,94711.08
2018-12-11T16:47:36.057Z,94714.48
2018-12-11T16:50:05.563Z,94712.76
2018-12-11T16:52:34.379Z,94718.73
2018-12-11T16:55:03.129Z,94718.59
2018-12-11T16:57:31.957Z,94715.88
2018-12-11T17:00:00.709Z,94723.03
2018-12-11T17:02:29.492Z,94732.31
2018-12-11T17:05:05.881Z,94730.72
2018-12-11T17:07:34.565Z,94728.13
2018-12-11T17:10:03.371Z,94729.48
2018-12-11T17:12:33.038Z,94737.64
2018-12-11T17:15:03.055Z,94731.79
2018-12-11T17:17:32.339Z,94730.67
2018-12-11T17:20:01.041Z,94730.98
2018-12-11T17:22:31.522Z,94732.36
2018-12-11T17:25:00.290Z,94727.72
2018-12-11T17:27:29.027Z,94735.97
2018-12-11T17:29:57.718Z,94732.30
2018-12-11T17:32:26.408Z,94732.09
2018-12-11T17:35:03.386Z,94735.40
2018-12-11T17:37:32.295Z,94733.73
2018-12-11T17:40:01.095Z,94737.42
2018-12-11T17:42:29.814Z,94730.67
2018-12-11T17:44:58.533Z,94739.53
2018-12-11T17:47:27.260Z,94739.75
2018-12-11T17:49:56.031Z,94735.40
2018-12-11T17:52:24.771Z,94742.97
2018-12-11T17:54:53.434Z,94744.67
2018-12-11T17:57:22.237Z,94747.36
2018-12-11T17:59:50.949Z,94752.66
2018-12-11T18:02:24.886Z,94750.31
2018-12-11T18:04:53.760Z,94752.99
2018-12-11T18:07:22.588Z,94756.56
2018-12-11T18:09:51.308Z,94760.57
2018-12-11T18:12:20.027Z,94761.11
2018-12-11T18:14:48.717Z,94764.30
2018-12-11T18:17:17.380Z,94769.80
2018-12-11T18:19:46.086Z,94775.73
2018-12-11T18:22:14.871Z,94778.63
2018-12-11T18:24:43.605Z,94778.22
2018-12-11T18:27:12.258Z,94781.98
2018-12-11T18:29:40.978Z,94780.22
2018-12-11T18:32:10.376Z,94781.78
2018-12-11T18:34:45.178Z,94785.89
2018-12-11T18:37:14.795Z,94785.89
2018-12-11T18:39:43.623Z,94779.91
2018-12-11T18:42:12.397Z,94777.94
2018-12-11T18:44:42.038Z,94781.23
2018-12-11T18:47:10.754Z,94783.72
2018-12-11T18:49:40.337Z,94778.83
2018-12-11T18:52:09.346Z,94778.63
2018-12-11T18:54:38.118Z,94781.38
2018-12-11T18:57:06.923Z,94781.65
2018-12-11T18:59:35.740Z,94779.64
2018-12-11T19:02:04.806Z,94780.30
2018-12-11T19:04:33.518Z,94784.16
2018-12-11T19:07:02.314Z,94787.42
2018-12-11T19:09:31.158Z,94788.22
2018-12-11T19:12:00.251Z,94778.17
2018-12-11T19:14:30.281Z,94783.56
2018-12-11T19:16:59.036Z,94785.58
2018-12-11T19:19:27.746Z,94786.48
2018-12-11T19:21:56.475Z,94787.13
2018-12-11T19:24:31.600Z,94787.13
2018-12-11T19:27:01.031Z,94789.06
2018-12-11T19:29:29.753Z,94785.67
2018-12-11T19:31:58.934Z,94780.87
2018-12-11T19:34:27.770Z,94786.07
2018-12-11T19:36:56.540Z,94782.88
2018-12-11T19:39:25.332Z,94781.38
2018-12-11T19:41:54.039Z,94783.45
2018-12-11T19:44:22.739Z,94786.34
2018-12-11T19:46:51.520Z,94779.28
2018-12-11T19:49:20.290Z,94776.66
2018-12-11T19:51:49.059Z,94784.33
2018-12-11T19:54:17.704Z,94778.90
2018-12-11T19:56:46.367Z,94779.64
2018-12-11T19:59:15.173Z,94791.34
2018-12-11T20:01:44.033Z,94791.34
2018-12-11T20:04:13.383Z,94788.41
2018-12-11T20:06:42.259Z,94790.58
2018-12-11T20:09:10.949Z,94787.00
2018-12-11T20:11:39.669Z,94793.66
2018-12-11T20:14:08.463Z,94791.86
2018-12-11T20:16:37.273Z,94801.87
2018-12-11T20:19:07.042Z,94797.31
2018-12-11T20:21:35.861Z,94800.58
2018-12-11T20:24:05.070Z,94802.95
2018-12-11T20:26:39.253Z,94796.50
2018-12-11T20:29:06.717Z,94793.80
2018-12-11T20:31:35.445Z,94799.77
2018-12-11T20:34:04.172Z,94799.81
2018-12-11T20:36:33.026Z,94800.16
2018-12-11T20:39:01.804Z,94793.45
2018-12-11T20:41:31.158Z,94799.89
2018-12-11T20:43:59.918Z,94800.23
2018-12-11T20:46:28.626Z,94803.80
2018-12-11T20:48:57.311Z,94799.29
2018-12-11T20:51:26.077Z,94800.72
2018-12-11T20:53:54.888Z,94804.97
2018-12-11T20:56:23.679Z,94798.53
2018-12-11T20:58:52.688Z,94806.81
2018-12-11T21:01:21.367Z,94809.13
2018-12-11T21:03:50.273Z,94813.27
2018-12-11T21:06:19.240Z,94809.13
2018-12-11T21:08:47.980Z,94812.02
2018-12-11T21:11:16.970Z,94812.31
2018-12-11T21:13:45.727Z,94815.63
2018-12-11T21:16:14.420Z,94817.25
2018-12-11T21:18:43.751Z,94815.97
2018-12-11T21:21:12.956Z,94820.77
2018-12-11T21:23:41.619Z,94816.82
2018-12-11T21:26:11.255Z,94815.88
2018-12-11T21:28:39.998Z,94816.16
2018-12-11T21:31:08.730Z,94818.04
2018-12-11T21:33:37.399Z,94813.62
2018-12-11T21:36:06.117Z,94820.19
2018-12-11T21:38:34.807Z,94816.19
2018-12-11T21:41:03.528Z,94811.44
2018-12-11T21:43:32.213Z,94821.00
2018-12-11T21:46:01.040Z,94817.68
2018-12-11T21:48:29.797Z,94817.45
2018-12-11T21:50:58.458Z,94817.70
2018-12-11T21:53:27.185Z,94818.97
2018-12-11T21:55:55.902Z,94818.11
2018-12-11T21:58:24.577Z,94814.62
2018-12-11T22:00:53.881Z,94816.25
2018-12-11T22:03:22.553Z,94813.60
2018-12-11T22:05:51.290Z,94811.50
2018-12-11T22:08:20.101Z,94812.21
2018-12-11T22:10:49.050Z,94806.23
2018-12-11T22:13:17.747Z,94814.08
2018-12-11T22:15:46.474Z,94802.53
2018-12-11T22:18:15.199Z,94801.98
2018-12-11T22:20:44.152Z,94802.39
2018-12-11T22:23:12.866Z,94807.35
2018-12-11T22:25:41.896Z,94811.73
2018-12-11T22:28:10.624Z,94817.14
2018-12-11T22:30:39.341Z,94813.88
2018-12-11T22:33:08.020Z,94812.31
2018-12-11T22:35:36.752Z,94813.27
2018-12-11T22:38:05.533Z,94814.48
2018-12-11T22:40:34.293Z,94812.99
2018-12-11T22:43:08.053Z,94815.77
2018-12-11T22:45:36.741Z,94812.72
2018-12-11T22:48:05.460Z,94808.06
2018-12-11T22:50:34.269Z,94812.75
2018-12-11T22:53:03.049Z,94805.95
2018-12-11T22:55:31.762Z,94804.19
2018-12-11T22:58:00.523Z,94804.64
2018-12-11T23:00:30.341Z,94799.27
2018-12-11T23:02:59.848Z,94793.20
2018-12-11T23:05:28.971Z,94789.94
2018-12-11T23:07:57.736Z,94785.34
2018-12-11T23:10:26.412Z,94792.11
2018-12-11T23:12:55.085Z,94786.50
2018-12-11T23:15:23.768Z,94782.79
2018-12-11T23:17:52.451Z,94779.47
2018-12-11T23:20:21.166Z,94781.97
2018-12-11T23:22:49.961Z,94789.00
2018-12-11T23:25:19.043Z,94795.41
2018-12-11T23:27:47.745Z,94798.80
2018-12-11T23:30:16.575Z,94802.48
2018-12-11T23:32:45.299Z,94804.48
2018-12-11T23:35:14.600Z,94803.53
2018-12-11T23:37:43.328Z,94811.95
2018-12-11T23:40:12.035Z,94808.55
2018-12-11T23:42:40.718Z,94811.61
2018-12-11T23:45:09.407Z,94811.84
2018-12-11T23:47:38.155Z,94814.90
2018-12-11T23:50:07.350Z,94811.64
2018-12-11T23:52:36.019Z,94814.56
2018-12-11T23:55:05.764Z,94812.98
2018-12-11T23:57:34.468Z,94816.27
